createdAt,value
2016-09-04T16:57:33.838Z,999.1
2016-09-04T16:58:33.964Z,999.15
2016-09-04T16:59:33.676Z,999.14
2016-09-04T17:00:34.361Z,999.13
2016-09-04T17:01:34.167Z,999.13
2016-09-04T17:02:33.883Z,999.14
2016-09-04T17:03:33.913Z,999.07
2016-09-04T17:04:33.828Z,999.09
2016-09-04T17:05:34.238Z,999.11
2016-09-04T17:06:33.773Z,999.1
2016-09-04T17:07:34.190Z,999.11
2016-09-04T17:08:34.520Z,999.05
2016-09-04T17:09:34.447Z,999.06
2016-09-04T17:10:34.234Z,999.07
2016-09-04T17:11:34.021Z,999.04
2016-09-04T17:12:34.955Z,999.07
2016-09-04T17:13:34.373Z,999.09
2016-09-04T17:14:34.252Z,999.11
2016-09-04T17:15:34.094Z,999.09
2016-09-04T17:16:34.440Z,999.09
2016-09-04T17:17:34.256Z,999.08
2016-09-04T17:18:34.573Z,999.06
2016-09-04T17:19:34.158Z,999.05
2016-09-04T17:20:34.749Z,999.08
2016-09-04T17:21:34.671Z,999.06
2016-09-04T17:22:35.178Z,999.1
2016-09-04T17:23:35.075Z,999.06
2016-09-04T17:24:34.325Z,999.11
2016-09-04T17:25:34.335Z,999.11
2016-09-04T17:26:34.885Z,999.1
2016-09-04T17:27:34.827Z,999.11
2016-09-04T17:28:35.024Z,999.13
2016-09-04T17:29:34.487Z,999.14
2016-09-04T17:30:34.674Z,999.19
2016-09-04T17:31:34.753Z,999.19
2016-09-04T17:32:35.067Z,999.21
2016-09-04T17:33:34.659Z,999.22
2016-09-04T17:34:34.532Z,999.27
2016-09-04T17:35:34.717Z,999.25
2016-09-04T17:36:36.408Z,999.26
2016-09-04T17:37:35.308Z,999.29
2016-09-04T17:38:35.200Z,999.26
2016-09-04T17:39:35.408Z,999.32
2016-09-04T17:40:34.745Z,999.23
2016-09-04T17:41:34.602Z,999.27
2016-09-04T17:42:34.659Z,999.21
2016-09-04T17:43:34.895Z,999.13
2016-09-04T17:44:35.102Z,999.17
2016-09-04T17:45:35.397Z,999.2
2016-09-04T17:46:35.112Z,999.18
2016-09-04T17:47:35.142Z,999.19
2016-09-04T17:48:34.832Z,999.13
2016-09-04T17:49:35.679Z,999.14
2016-09-04T17:50:35.409Z,999.15
2016-09-04T17:51:35.724Z,999.12
2016-09-04T17:52:35.589Z,999.13
2016-09-04T17:53:35.220Z,999.18
2016-09-04T17:54:35.325Z,999.18
2016-09-04T17:55:35.620Z,999.14
2016-09-04T17:56:35.914Z,999.15
2016-09-04T17:57:35.180Z,999.2
2016-09-04T17:58:35.002Z,999.19
2016-09-04T17:59:35.449Z,999.18
2016-09-04T18:00:35.309Z,999.25
2016-09-04T18:01:35.728Z,999.21
2016-09-04T18:02:35.541Z,999.21
2016-09-04T18:03:35.309Z,999.28
2016-09-04T18:04:35.925Z,999.28
2016-09-04T18:05:35.482Z,999.27
2016-09-04T18:06:35.477Z,999.28
2016-09-04T18:07:35.686Z,999.3
2016-09-04T18:08:35.842Z,999.34
2016-09-04T18:09:35.749Z,999.35
2016-09-04T18:10:36.159Z,999.37
2016-09-04T18:11:36.204Z,999.37
2016-09-04T18:12:35.606Z,999.4
2016-09-04T18:13:36.112Z,999.47
2016-09-04T18:14:36.157Z,999.48
2016-09-04T18:15:35.991Z,999.4
2016-09-04T18:16:35.766Z,999.4
2016-09-04T18:17:36.583Z,999.5
2016-09-04T18:18:35.855Z,999.39
2016-09-04T18:19:35.739Z,999.4
2016-09-04T18:20:36.050Z,999.43
2016-09-04T18:21:36.664Z,999.4
2016-09-04T18:22:36.781Z,999.43
2016-09-04T18:23:36.501Z,999.43
2016-09-04T18:24:35.887Z,999.52
2016-09-04T18:25:36.155Z,999.54
2016-09-04T18:26:36.262Z,999.52
2016-09-04T18:27:36.287Z,999.52
2016-09-04T18:28:36.741Z,999.58
2016-09-04T18:29:36.738Z,999.57
2016-09-04T18:30:37.146Z,999.59
2016-09-04T18:31:36.245Z,999.71
2016-09-04T18:32:36.253Z,999.72
2016-09-04T18:33:36.654Z,999.68
2016-09-04T18:34:36.341Z,999.99
2016-09-04T18:35:36.502Z,999.93
2016-09-04T18:36:36.134Z,1000.09
2016-09-04T18:37:37.229Z,1000.26
2016-09-04T18:38:36.291Z,1000.36
2016-09-04T18:39:36.153Z,1000.38
2016-09-04T18:40:36.679Z,1000.34
2016-09-04T18:41:37.666Z,1000.46
2016-09-04T18:42:36.472Z,1000.46
2016-09-04T18:43:37.208Z,1000.46
2016-09-04T18:44:36.525Z,1000.42
2016-09-04T18:45:36.742Z,1000.42
2016-09-04T18:46:36.675Z,1000.43
2016-09-04T18:47:36.800Z,1000.38
2016-09-04T18:48:36.985Z,1000.4
2016-09-04T18:49:37.019Z,1000.47
2016-09-04T18:50:36.773Z,1000.44
2016-09-04T18:51:37.090Z,1000.35
2016-09-04T18:52:36.602Z,1000.38
2016-09-04T18:53:37.147Z,1000.36
2016-09-04T18:54:37.596Z,1000.37
2016-09-04T18:55:36.555Z,1000.4
2016-09-04T18:56:37.007Z,1000.41
2016-09-04T18:57:36.705Z,1000.39
2016-09-04T18:58:38.727Z,1000.32
2016-09-04T18:59:37.133Z,1000.34
2016-09-04T19:00:36.741Z,1000.37
2016-09-04T19:01:36.669Z,1000.36
2016-09-04T19:02:37.942Z,1000.35
2016-09-04T19:03:37.066Z,1000.36
2016-09-04T19:04:38.103Z,1000.4
2016-09-04T19:05:36.996Z,1000.4
2016-09-04T19:06:36.960Z,1000.43
2016-09-04T19:07:36.825Z,1000.49
2016-09-04T19:08:37.771Z,1000.48
2016-09-04T19:09:37.029Z,1000.49
2016-09-04T19:10:37.492Z,1000.53
2016-09-04T19:11:36.966Z,1000.52
2016-09-04T19:12:38.144Z,1000.53
2016-09-04T19:13:37.484Z,1000.55
2016-09-04T19:14:38.160Z,1000.54
2016-09-04T19:15:37.726Z,1000.54
2016-09-04T19:16:37.537Z,1000.58
2016-09-04T19:17:37.131Z,1000.64
2016-09-04T19:18:37.734Z,1000.65
2016-09-04T19:19:37.405Z,1000.68
2016-09-04T19:20:37.971Z,1000.74
2016-09-04T19:21:37.451Z,1000.74
2016-09-04T19:22:38.090Z,1000.73
2016-09-04T19:23:37.895Z,1000.76
2016-09-04T19:24:37.905Z,1000.76
2016-09-04T19:25:37.932Z,1000.79
2016-09-04T19:26:38.768Z,1000.75
2016-09-04T19:27:37.991Z,1000.77
2016-09-04T19:28:37.962Z,1000.78
2016-09-04T19:29:37.530Z,1000.8
2016-09-04T19:30:38.161Z,1000.83
2016-09-04T19:31:38.183Z,1000.82
2016-09-04T19:32:38.175Z,1000.86
2016-09-04T19:33:37.933Z,1000.83
2016-09-04T19:34:37.893Z,1000.86
2016-09-04T19:35:38.140Z,1000.89
2016-09-04T19:36:39.242Z,1000.89
2016-09-04T19:37:38.258Z,1000.89
2016-09-04T19:38:38.182Z,1000.93
2016-09-04T19:39:38.025Z,1000.92
2016-09-04T19:40:38.074Z,1000.92
2016-09-04T19:41:38.935Z,1000.9
2016-09-04T19:42:37.938Z,1000.95
2016-09-04T19:43:37.859Z,1000.95
2016-09-04T19:44:38.358Z,1000.96
2016-09-04T19:45:38.204Z,1000.98
2016-09-04T19:46:37.966Z,1000.97
2016-09-04T19:47:38.781Z,1000.97
2016-09-04T19:48:38.582Z,1000.93
2016-09-04T19:49:38.286Z,1000.97
2016-09-04T19:50:38.267Z,1000.95
2016-09-04T19:51:38.765Z,1000.94
2016-09-04T19:52:37.958Z,1000.96
2016-09-04T19:53:38.945Z,1000.99
2016-09-04T19:54:38.272Z,1001
2016-09-04T19:55:38.370Z,1001.04
2016-09-04T19:56:38.659Z,1001.02
2016-09-04T19:57:38.680Z,1001.04
2016-09-04T19:58:38.553Z,1001
2016-09-04T19:59:38.564Z,1000.98
2016-09-04T20:00:38.584Z,1001
2016-09-04T20:01:39.241Z,1001.01
2016-09-04T20:02:38.885Z,1001.04
2016-09-04T20:03:38.670Z,1001.08
2016-09-04T20:04:38.997Z,1001.03
2016-09-04T20:05:39.241Z,1001.01
2016-09-04T20:06:39.429Z,1001.06
2016-09-04T20:07:38.914Z,1001
2016-09-04T20:08:38.557Z,1001.04
2016-09-04T20:09:38.478Z,1001.01
2016-09-04T20:10:38.369Z,1001.03
2016-09-04T20:11:38.135Z,1001.05
2016-09-04T20:12:39.029Z,1001.02
2016-09-04T20:13:38.469Z,1000.99
2016-09-04T20:14:38.948Z,1001.04
2016-09-04T20:15:38.831Z,1001.03
2016-09-04T20:16:39.064Z,1001.02
2016-09-04T20:17:38.798Z,1001.06
2016-09-04T20:18:39.121Z,1001.08
2016-09-04T20:19:39.069Z,1001.07
2016-09-04T20:20:39.165Z,1001.06
2016-09-04T20:21:40.199Z,1001.09
2016-09-04T20:22:39.224Z,1001.11
2016-09-04T20:23:38.938Z,1001.06
2016-09-04T20:24:39.155Z,1001.05
2016-09-04T20:25:39.505Z,1001.07
2016-09-04T20:26:39.578Z,1001.06
2016-09-04T20:27:39.356Z,1001.09
2016-09-04T20:28:38.911Z,1001.08
2016-09-04T20:29:39.227Z,1001.06
2016-09-04T20:30:39.150Z,1001.11
2016-09-04T20:31:39.339Z,1001.08
2016-09-04T20:32:39.330Z,1001.14
2016-09-04T20:33:39.228Z,1001.1
2016-09-04T20:34:39.148Z,1001.11
2016-09-04T20:35:39.360Z,1001.12
2016-09-04T20:36:39.286Z,1001.11
2016-09-04T20:37:39.508Z,1001.13
2016-09-04T20:38:39.547Z,1001.15
2016-09-04T20:39:39.949Z,1001.07
2016-09-04T20:40:40.310Z,1001.12
2016-09-04T20:41:39.414Z,1001.09
2016-09-04T20:42:39.422Z,1001.1
2016-09-04T20:43:39.380Z,1001.14
2016-09-04T20:44:39.636Z,1001.13
2016-09-04T20:45:39.138Z,1001.12
2016-09-04T20:46:39.621Z,1001.1
2016-09-04T20:47:39.985Z,1001.13
2016-09-04T20:48:40.677Z,1001.15
2016-09-04T20:49:39.827Z,1001.12
2016-09-04T20:50:39.760Z,1001.11
2016-09-04T20:51:40.318Z,1001.08
2016-09-04T20:52:39.569Z,1001.12
2016-09-04T20:53:40.148Z,1001.14
2016-09-04T20:54:39.816Z,1001.13
2016-09-04T20:55:39.718Z,1001.12
2016-09-04T20:56:39.779Z,1001.09
2016-09-04T20:57:39.889Z,1001.09
2016-09-04T20:58:39.694Z,1001.07
2016-09-04T20:59:39.735Z,1001.12
2016-09-04T21:00:39.932Z,1001.18
2016-09-04T21:01:39.952Z,1001.16
2016-09-04T21:02:39.749Z,1001.16
2016-09-04T21:03:39.760Z,1001.19
2016-09-04T21:04:40.970Z,1001.2
2016-09-04T21:05:39.932Z,1001.21
2016-09-04T21:06:39.939Z,1001.24
2016-09-04T21:07:39.891Z,1001.22
2016-09-04T21:08:39.910Z,1001.24
2016-09-04T21:09:40.697Z,1001.25
2016-09-04T21:10:40.369Z,1001.24
2016-09-04T21:11:40.260Z,1001.19
2016-09-04T21:12:39.847Z,1001.23
2016-09-04T21:13:40.535Z,1001.22
2016-09-04T21:14:40.269Z,1001.28
2016-09-04T21:15:40.235Z,1001.31
2016-09-04T21:16:40.001Z,1001.27
2016-09-04T21:17:40.007Z,1001.31
2016-09-04T21:18:40.137Z,1001.32
2016-09-04T21:19:40.029Z,1001.32
2016-09-04T21:20:40.812Z,1001.34
2016-09-04T21:21:40.610Z,1001.33
2016-09-04T21:22:40.267Z,1001.35
2016-09-04T21:23:40.189Z,1001.35
2016-09-04T21:24:40.381Z,1001.36
2016-09-04T21:25:40.348Z,1001.41
2016-09-04T21:26:40.181Z,1001.41
2016-09-04T21:27:41.030Z,1001.49
2016-09-04T21:28:41.176Z,1001.52
2016-09-04T21:29:41.000Z,1001.47
2016-09-04T21:30:40.588Z,1001.4
2016-09-04T21:31:40.803Z,1001.34
2016-09-04T21:32:40.526Z,1001.25
2016-09-04T21:33:40.675Z,1001.3
2016-09-04T21:34:40.824Z,1001.29
2016-09-04T21:35:40.889Z,1001.3
2016-09-04T21:36:40.715Z,1001.33
2016-09-04T21:37:40.781Z,1001.33
2016-09-04T21:38:40.974Z,1001.31
2016-09-04T21:39:41.010Z,1001.27
2016-09-04T21:40:40.731Z,1001.32
2016-09-04T21:41:41.542Z,1001.38
2016-09-04T21:42:40.793Z,1001.32
2016-09-04T21:43:40.585Z,1001.37
2016-09-04T21:44:40.914Z,1001.34
2016-09-04T21:45:40.555Z,1001.37
2016-09-04T21:46:40.766Z,1001.4
2016-09-04T21:47:40.710Z,1001.34
2016-09-04T21:48:40.908Z,1001.39
2016-09-04T21:49:40.990Z,1001.39
2016-09-04T21:50:40.807Z,1001.35
2016-09-04T21:51:41.773Z,1001.34
2016-09-04T21:52:41.045Z,1001.35
2016-09-04T21:53:41.352Z,1001.33
2016-09-04T21:54:41.404Z,1001.28
2016-09-04T21:55:41.831Z,1001.31
2016-09-04T21:56:40.945Z,1001.28
2016-09-04T21:57:41.136Z,1001.26
2016-09-04T21:58:41.304Z,1001.25
2016-09-04T21:59:41.726Z,1001.27
2016-09-04T22:00:41.581Z,1001.32
2016-09-04T22:01:41.384Z,1001.33
2016-09-04T22:02:41.313Z,1001.35
2016-09-04T22:03:41.551Z,1001.26
2016-09-04T22:04:42.446Z,1001.27
2016-09-04T22:05:41.228Z,1001.27
2016-09-04T22:06:41.349Z,1001.26
2016-09-04T22:07:41.473Z,1001.27
2016-09-04T22:08:41.586Z,1001.3
2016-09-04T22:09:42.185Z,1001.3
2016-09-04T22:10:41.574Z,1001.28
2016-09-04T22:11:42.221Z,1001.31
2016-09-04T22:12:41.875Z,1001.35
2016-09-04T22:13:42.182Z,1001.32
2016-09-04T22:14:41.664Z,1001.36
2016-09-04T22:15:41.742Z,1001.33
2016-09-04T22:16:42.109Z,1001.33
2016-09-04T22:17:41.952Z,1001.35
2016-09-04T22:18:42.691Z,1001.33
2016-09-04T22:19:41.981Z,1001.34
2016-09-04T22:20:41.981Z,1001.33
2016-09-04T22:21:42.924Z,1001.32
2016-09-04T22:22:41.938Z,1001.34
2016-09-04T22:23:42.109Z,1001.38
2016-09-04T22:24:42.498Z,1001.38
2016-09-04T22:25:42.774Z,1001.37
2016-09-04T22:26:42.126Z,1001.4
2016-09-04T22:27:41.926Z,1001.38
2016-09-04T22:28:42.096Z,1001.33
2016-09-04T22:29:41.797Z,1001.34
2016-09-04T22:30:42.100Z,1001.35
2016-09-04T22:31:42.871Z,1001.37
2016-09-04T22:32:42.590Z,1001.4
2016-09-04T22:33:42.670Z,1001.43
2016-09-04T22:34:42.853Z,1001.41
2016-09-04T22:35:42.235Z,1001.4
2016-09-04T22:36:41.894Z,1001.4
2016-09-04T22:37:41.824Z,1001.38
2016-09-04T22:38:42.825Z,1001.4
2016-09-04T22:39:42.097Z,1001.43
2016-09-04T22:40:43.041Z,1001.4
2016-09-04T22:41:41.898Z,1001.47
2016-09-04T22:42:42.160Z,1001.47
2016-09-04T22:43:42.915Z,1001.43
2016-09-04T22:44:43.240Z,1001.45
